Time;durP1;ratioP1;P1;durP2;ratioP2;P2;SDS_P1;SDS_P2;PMS_P1;PMS_P2;Temp;Humidity;BMP_temperature;BMP_pressure;BME280_temperature;BME280_humidity;BME280_pressure;Samples;Min_cycle;Max_cycle;Signal;HPM_P1;HPM_P2
2021/09/14 00:02:03;;;;;;;10.30;7.82;;;21.40;56.70;;;;;;5054390;28;20384;-60
2021/09/14 00:04:29;;;;;;;11.13;7.75;;;21.40;56.70;;;;;;5054007;28;20032;-61
2021/09/14 00:06:55;;;;;;;10.65;8.15;;;21.30;56.80;;;;;;5052860;28;20029;-61
2021/09/14 00:09:20;;;;;;;10.73;7.63;;;21.30;56.90;;;;;;5045048;28;20029;-61
2021/09/14 00:11:46;;;;;;;9.98;7.35;;;21.30;57.00;;;;;;5033892;28;20025;-61
2021/09/14 00:14:12;;;;;;;9.93;7.70;;;21.30;57.10;;;;;;5033781;28;20029;-61
2021/09/14 00:16:37;;;;;;;10.50;8.30;;;21.40;57.20;;;;;;5033861;28;20377;-62
2021/09/14 00:19:03;;;;;;;10.68;8.15;;;21.30;57.30;;;;;;5033739;28;20524;-60
2021/09/14 00:21:29;;;;;;;11.05;8.50;;;21.30;57.50;;;;;;5033798;28;20399;-61
2021/09/14 00:23:54;;;;;;;11.20;8.35;;;21.30;57.60;;;;;;5033666;28;20106;-61
2021/09/14 00:26:20;;;;;;;10.10;7.63;;;21.20;57.70;;;;;;5033612;28;20029;-61
2021/09/14 00:28:46;;;;;;;10.05;7.45;;;21.20;57.80;;;;;;5033640;28;20053;-61
2021/09/14 00:31:11;;;;;;;10.05;7.45;;;21.20;57.80;;;;;;5033627;28;20033;-60
2021/09/14 00:33:37;;;;;;;9.13;7.15;;;21.20;57.90;;;;;;5033587;28;20120;-61
2021/09/14 00:36:03;;;;;;;10.10;7.68;;;21.20;57.90;;;;;;5033854;28;20468;-61
2021/09/14 00:38:28;;;;;;;10.13;7.63;;;21.20;58.00;;;;;;5033665;28;20124;-61
2021/09/14 00:40:54;;;;;;;10.00;7.30;;;21.20;58.10;;;;;;5033289;28;20392;-61
2021/09/14 00:43:21;;;;;;;10.18;7.80;;;21.20;58.20;;;;;;5033330;28;20035;-62
2021/09/14 00:45:47;;;;;;;10.02;7.68;;;21.20;58.20;;;;;;5033325;28;20515;-61
2021/09/14 00:48:13;;;;;;;10.80;7.22;;;21.20;58.20;;;;;;5033460;28;20395;-61
2021/09/14 00:50:39;;;;;;;9.90;7.35;;;21.20;58.30;;;;;;5032881;28;20100;-63
2021/09/14 00:53:05;;;;;;;9.80;6.97;;;21.20;58.30;;;;;;5033036;28;20485;-61
2021/09/14 00:55:31;;;;;;;10.38;7.45;;;21.10;58.30;;;;;;5033009;28;20071;-61
2021/09/14 00:57:57;;;;;;;9.18;6.97;;;21.10;58.50;;;;;;5033043;28;20022;-61
2021/09/14 01:00:22;;;;;;;9.15;6.78;;;21.10;58.60;;;;;;5032939;28;20044;-61
2021/09/14 01:02:49;;;;;;;8.90;6.55;;;21.00;58.60;;;;;;5029580;28;20032;-61
2021/09/14 01:05:15;;;;;;;9.05;6.50;;;21.00;58.70;;;;;;5032741;28;20013;-61
2021/09/14 01:07:42;;;;;;;8.60;6.28;;;21.00;58.90;;;;;;5032912;28;20377;-60
2021/09/14 01:10:10;;;;;;;8.95;6.28;;;20.90;59.00;;;;;;5032777;28;20036;-61
2021/09/14 01:12:37;;;;;;;9.48;6.45;;;20.90;59.10;;;;;;5032758;28;20040;-61
2021/09/14 01:15:03;;;;;;;8.38;6.32;;;20.90;59.30;;;;;;5032781;28;20464;-61
2021/09/14 01:17:28;;;;;;;9.13;6.97;;;20.80;59.40;;;;;;5032713;28;20030;-61
2021/09/14 01:19:54;;;;;;;8.25;6.32;;;20.80;59.50;;;;;;5032591;28;20110;-61
2021/09/14 01:22:20;;;;;;;9.38;6.60;;;20.80;59.70;;;;;;5032601;28;20136;-61
2021/09/14 01:24:46;;;;;;;8.95;6.43;;;20.80;59.80;;;;;;5032617;28;20025;-62
2021/09/14 01:27:12;;;;;;;8.95;6.60;;;20.80;59.80;;;;;;5031007;28;20026;-62
2021/09/14 01:32:21;;;;;;;9.10;6.57;;;20.70;59.90;;;;;;5032124;28;20060;-60
2021/09/14 01:34:47;;;;;;;9.45;6.65;;;20.70;59.90;;;;;;5032008;28;20061;-60
2021/09/14 01:37:13;;;;;;;8.93;6.43;;;20.70;60.10;;;;;;5031807;28;20025;-61
2021/09/14 01:39:38;;;;;;;8.52;6.55;;;20.60;60.70;;;;;;5030834;28;20021;-61
2021/09/14 01:42:04;;;;;;;10.30;7.20;;;20.60;60.30;;;;;;5032040;28;20040;-60
2021/09/14 01:44:30;;;;;;;8.70;6.65;;;20.60;60.40;;;;;;5031854;28;20099;-61
2021/09/14 01:46:55;;;;;;;8.55;6.45;;;20.60;60.60;;;;;;5032084;28;20461;-61
2021/09/14 01:49:21;;;;;;;9.05;6.43;;;20.60;60.70;;;;;;5031994;28;20096;-61
2021/09/14 01:51:46;;;;;;;9.27;6.68;;;20.60;60.70;;;;;;5031682;28;20094;-60
2021/09/14 01:54:12;;;;;;;8.90;6.65;;;20.60;60.70;;;;;;5031548;28;20044;-61
2021/09/14 01:56:38;;;;;;;9.93;6.40;;;20.60;60.80;;;;;;5031701;28;20021;-61
2021/09/14 01:59:05;;;;;;;9.38;6.65;;;20.60;60.80;;;;;;5032027;28;20026;-61
2021/09/14 02:01:35;;;;;;;8.80;6.50;;;20.60;61.00;;;;;;5031750;28;20048;-61
2021/09/14 02:04:13;;;;;;;8.82;6.55;;;20.60;61.10;;;;;;5031878;28;20480;-62
2021/09/14 02:58:44;;;;;;;9.32;6.80;;;20.50;62.60;;;;;;5031272;28;20035;-60
2021/09/14 03:01:13;;;;;;;9.48;7.18;;;20.50;62.60;;;;;;5031383;28;20017;-60
2021/09/14 03:03:42;;;;;;;8.88;6.85;;;20.60;62.70;;;;;;5029856;28;20132;-60
2021/09/14 03:06:09;;;;;;;8.77;6.68;;;20.50;62.70;;;;;;5031260;28;20037;-61
2021/09/14 03:08:39;;;;;;;10.70;7.63;;;20.60;63.40;;;;;;5031296;28;20018;-60
2021/09/14 03:11:06;;;;;;;10.63;7.97;;;20.60;62.80;;;;;;5031649;28;20025;-61
2021/09/14 03:13:33;;;;;;;10.00;7.30;;;20.60;62.90;;;;;;5031214;28;20789;-60
2021/09/14 03:15:59;;;;;;;9.93;7.75;;;20.60;62.90;;;;;;5031481;28;20701;-61
2021/09/14 03:18:24;;;;;;;10.57;7.60;;;20.60;63.00;;;;;;5031249;28;20028;-61
2021/09/14 03:20:50;;;;;;;10.32;7.75;;;20.60;63.00;;;;;;5030331;28;20093;-61
2021/09/14 03:23:16;;;;;;;10.23;7.80;;;20.60;63.20;;;;;;5031145;28;20429;-60
2021/09/14 03:25:41;;;;;;;11.32;8.73;;;20.50;63.00;;;;;;5030932;28;20376;-61
2021/09/14 03:28:07;;;;;;;10.70;8.23;;;20.50;63.20;;;;;;5031149;28;20033;-61
2021/09/14 03:30:33;;;;;;;10.68;8.15;;;20.50;63.20;;;;;;5034865;28;20032;-61
2021/09/14 03:33:01;;;;;;;12.85;10.10;;;20.50;63.30;;;;;;5034234;28;20029;-61
2021/09/14 03:35:27;;;;;;;12.05;9.27;;;20.50;63.40;;;;;;5034207;28;20026;-61
2021/09/14 03:37:52;;;;;;;12.77;9.95;;;20.50;63.40;;;;;;5034589;28;20021;-61
2021/09/14 03:40:18;;;;;;;12.95;9.90;;;20.50;63.50;;;;;;5034270;28;20018;-61
2021/09/14 03:42:44;;;;;;;11.77;9.02;;;20.50;63.50;;;;;;5034411;28;20106;-61
2021/09/14 03:45:10;;;;;;;11.20;8.93;;;20.50;63.60;;;;;;5034315;28;20159;-63
2021/09/14 03:47:36;;;;;;;12.07;8.93;;;20.50;64.20;;;;;;5034496;28;20018;-60
2021/09/14 03:50:02;;;;;;;10.80;8.60;;;20.50;63.60;;;;;;5034094;28;20021;-60
2021/09/14 03:52:27;;;;;;;11.23;8.57;;;20.50;63.70;;;;;;5033651;28;20049;-60
2021/09/14 03:54:53;;;;;;;10.93;8.05;;;20.40;63.70;;;;;;5034353;28;20143;-61
2021/09/14 03:57:19;;;;;;;9.98;7.93;;;20.40;63.80;;;;;;5034302;28;20096;-61
2021/09/14 03:59:44;;;;;;;10.38;8.07;;;20.40;63.90;;;;;;5034238;28;20022;-61
2021/09/14 04:03:14;;;;;;;10.52;8.13;;;20.40;64.00;;;;;;5033964;28;20117;-62
2021/09/14 04:07:53;;;;;;;10.82;8.43;;;20.40;64.00;;;;;;5034180;28;20131;-61
2021/09/14 04:10:19;;;;;;;10.57;8.35;;;20.40;64.20;;;;;;5033845;28;20491;-62
2021/09/14 04:12:44;;;;;;;11.38;8.25;;;20.40;64.20;;;;;;5033772;28;20025;-61
2021/09/14 04:15:10;;;;;;;10.52;7.85;;;20.40;64.30;;;;;;5033690;28;20495;-62
2021/09/14 04:17:36;;;;;;;11.30;8.18;;;20.50;64.30;;;;;;5034064;28;20471;-61
2021/09/14 04:20:03;;;;;;;10.63;8.50;;;20.50;64.30;;;;;;5033677;28;20057;-60
2021/09/14 04:22:28;;;;;;;10.70;7.65;;;20.50;64.30;;;;;;5031880;28;20026;-60
2021/09/14 04:24:54;;;;;;;11.32;8.88;;;20.60;64.40;;;;;;5033487;28;20458;-61
2021/09/14 04:27:19;;;;;;;11.18;8.20;;;20.60;64.30;;;;;;5033679;28;20465;-62
2021/09/14 04:29:46;;;;;;;10.40;7.93;;;20.60;64.30;;;;;;5033326;28;20029;-61
2021/09/14 04:32:12;;;;;;;10.45;7.95;;;20.60;64.30;;;;;;5033410;28;20034;-61
2021/09/14 04:34:37;;;;;;;10.23;7.65;;;20.60;64.30;;;;;;5033166;28;20044;-61
2021/09/14 04:37:03;;;;;;;11.43;7.93;;;20.60;64.20;;;;;;5033417;28;20026;-61
2021/09/14 04:39:29;;;;;;;10.20;8.15;;;20.60;64.30;;;;;;5032624;28;20029;-61
2021/09/14 04:41:54;;;;;;;10.10;7.72;;;20.60;64.30;;;;;;5032917;28;20030;-61
2021/09/14 04:44:20;;;;;;;11.23;8.27;;;20.60;64.30;;;;;;5033250;28;20037;-62
2021/09/14 04:46:46;;;;;;;10.52;7.45;;;20.60;64.30;;;;;;5033110;28;20389;-61
2021/09/14 04:49:12;;;;;;;10.38;7.63;;;20.70;64.40;;;;;;5033122;28;20483;-61
2021/09/14 04:51:37;;;;;;;10.52;7.75;;;20.70;64.40;;;;;;5032155;28;20057;-61
2021/09/14 04:54:03;;;;;;;8.65;6.78;;;20.70;64.40;;;;;;5032766;28;20025;-62
2021/09/14 04:56:29;;;;;;;8.88;6.80;;;20.70;64.30;;;;;;5032930;28;20025;-61
2021/09/14 04:58:54;;;;;;;11.10;7.75;;;20.80;64.40;;;;;;5032375;28;20018;-62
2021/09/14 05:01:21;;;;;;;9.63;6.93;;;20.80;64.60;;;;;;5032276;28;20803;-61
2021/09/14 05:03:47;;;;;;;9.43;7.13;;;20.90;64.50;;;;;;5032350;28;20037;-60
2021/09/14 05:06:14;;;;;;;9.80;7.25;;;20.90;64.40;;;;;;5032053;28;20024;-60
2021/09/14 05:08:40;;;;;;;11.20;7.65;;;20.90;64.40;;;;;;5032803;28;20379;-62
2021/09/14 05:11:06;;;;;;;10.00;6.65;;;21.00;65.10;;;;;;5032773;28;20152;-61
2021/09/14 05:13:32;;;;;;;9.15;6.88;;;21.10;64.50;;;;;;5032571;28;20124;-61
2021/09/14 05:15:58;;;;;;;10.27;7.20;;;21.20;64.40;;;;;;5032318;28;20028;-61
2021/09/14 05:18:28;;;;;;;8.93;6.65;;;21.20;64.40;;;;;;5031892;28;20029;-61
2021/09/14 05:20:55;;;;;;;8.10;6.38;;;21.30;64.40;;;;;;5032458;28;20021;-62
2021/09/14 05:23:30;;;;;;;8.55;6.68;;;21.30;64.30;;;;;;5033331;28;20057;-61
2021/09/14 05:25:57;;;;;;;9.00;6.65;;;21.40;64.40;;;;;;5043542;28;20039;-61
2021/09/14 05:28:22;;;;;;;8.70;6.60;;;21.50;64.30;;;;;;5051931;28;20483;-62
2021/09/14 05:30:48;;;;;;;9.25;7.07;;;21.70;64.20;;;;;;5032833;28;20025;-62
2021/09/14 05:33:14;;;;;;;9.65;7.18;;;21.80;64.00;;;;;;5038084;28;20031;-62
2021/09/14 05:35:47;;;;;;;8.07;6.07;;;21.90;63.80;;;;;;5044641;28;20053;-62
2021/09/14 05:38:14;;;;;;;9.05;7.20;;;22.00;63.70;;;;;;5012396;28;20036;-62
2021/09/14 05:40:40;;;;;;;10.02;7.22;;;22.10;63.50;;;;;;5020022;28;20056;-61
2021/09/14 05:43:05;;;;;;;8.63;6.35;;;22.10;63.20;;;;;;5031848;28;20057;-61
2021/09/14 05:45:32;;;;;;;8.95;6.72;;;22.10;63.20;;;;;;5030388;28;20076;-61
2021/09/14 05:47:58;;;;;;;8.75;7.10;;;22.10;63.80;;;;;;5032050;28;20422;-63
2021/09/14 05:50:25;;;;;;;9.73;6.95;;;22.10;63.20;;;;;;5031154;28;20044;-62
2021/09/14 05:52:50;;;;;;;9.00;6.50;;;22.10;63.10;;;;;;5031276;28;20037;-61
2021/09/14 05:55:16;;;;;;;8.65;6.53;;;22.00;63.00;;;;;;5031893;28;20534;-62
2021/09/14 05:57:42;;;;;;;8.15;6.45;;;22.00;63.00;;;;;;5031647;28;20022;-63
2021/09/14 06:00:08;;;;;;;8.32;5.70;;;22.00;63.00;;;;;;5032163;28;20028;-62
2021/09/14 06:02:34;;;;;;;8.05;5.90;;;22.00;63.00;;;;;;5031849;28;20503;-61
2021/09/14 06:05:00;;;;;;;8.45;6.00;;;22.00;63.00;;;;;;5031964;28;20033;-65
2021/09/14 06:07:26;;;;;;;8.35;5.85;;;22.00;63.00;;;;;;5031940;28;20021;-63
2021/09/14 06:09:51;;;;;;;7.88;5.60;;;22.10;63.00;;;;;;5031675;28;20032;-62
2021/09/14 06:12:17;;;;;;;8.13;5.15;;;22.20;62.90;;;;;;5031708;28;20468;-62
2021/09/14 06:14:42;;;;;;;7.93;5.65;;;22.30;62.70;;;;;;5031509;28;20464;-63
2021/09/14 06:17:08;;;;;;;7.75;5.40;;;22.40;62.40;;;;;;5031603;28;20029;-63
2021/09/14 06:19:34;;;;;;;8.75;6.13;;;22.50;62.20;;;;;;5031529;28;20021;-63
2021/09/14 06:22:01;;;;;;;7.35;5.50;;;22.60;62.20;;;;;;5031727;28;20060;-62
2021/09/14 06:24:27;;;;;;;7.32;5.57;;;22.70;62.00;;;;;;5030469;28;20095;-63
2021/09/14 06:26:52;;;;;;;8.00;5.22;;;22.90;61.90;;;;;;5031665;28;20528;-61
2021/09/14 06:29:18;;;;;;;7.32;5.57;;;23.10;62.40;;;;;;5031689;28;20025;-62
2021/09/14 06:31:44;;;;;;;7.32;5.45;;;23.20;61.30;;;;;;5031660;28;20033;-62
2021/09/14 06:34:09;;;;;;;7.65;5.63;;;23.30;61.00;;;;;;5031321;28;20468;-61
2021/09/14 06:36:35;;;;;;;8.30;5.18;;;23.50;60.80;;;;;;5031427;28;20025;-60
2021/09/14 06:39:00;;;;;;;6.75;5.15;;;23.50;60.50;;;;;;5034000;28;20111;-59
2021/09/14 06:41:28;;;;;;;6.63;5.07;;;23.60;60.40;;;;;;5051544;28;20056;-60
2021/09/14 06:43:53;;;;;;;6.90;4.95;;;23.60;60.20;;;;;;5032358;28;20137;-58
2021/09/14 06:46:19;;;;;;;6.65;4.88;;;23.70;60.10;;;;;;5031384;28;20550;-59
2021/09/14 06:48:45;;;;;;;6.20;4.70;;;23.80;59.90;;;;;;5031380;28;20040;-62
2021/09/14 06:51:10;;;;;;;7.05;4.82;;;23.80;59.70;;;;;;5031026;28;20076;-61
2021/09/14 06:53:36;;;;;;;6.35;4.55;;;23.90;59.70;;;;;;5031127;28;20037;-59
2021/09/14 06:56:02;;;;;;;6.20;4.55;;;24.00;59.70;;;;;;5031195;28;20064;-59
2021/09/14 06:58:28;;;;;;;5.95;4.45;;;24.10;59.60;;;;;;5031119;28;20033;-60
2021/09/14 07:00:54;;;;;;;6.00;4.30;;;24.20;59.30;;;;;;5031117;28;20507;-60
2021/09/14 07:03:19;;;;;;;6.38;4.53;;;24.30;59.10;;;;;;5033151;28;20025;-59
2021/09/14 07:05:45;;;;;;;6.90;4.10;;;24.40;58.90;;;;;;5034952;28;20036;-59
2021/09/14 07:08:12;;;;;;;5.40;3.78;;;24.60;58.60;;;;;;5034902;28;20025;-59
2021/09/14 07:10:39;;;;;;;5.68;3.67;;;24.80;58.10;;;;;;5034818;28;20026;-60
2021/09/14 07:13:04;;;;;;;5.47;3.58;;;24.90;57.70;;;;;;5034793;28;20026;-59
2021/09/14 07:15:30;;;;;;;4.65;2.97;;;25.10;57.50;;;;;;5034726;28;20041;-59
2021/09/14 07:17:56;;;;;;;4.97;3.40;;;25.20;56.90;;;;;;5034664;28;20219;-58
2021/09/14 07:20:22;;;;;;;5.10;3.63;;;25.30;56.60;;;;;;5034379;28;20118;-60
2021/09/14 07:22:47;;;;;;;4.97;3.08;;;25.40;56.20;;;;;;5034444;28;20065;-59
2021/09/14 07:25:13;;;;;;;4.95;3.10;;;25.40;55.90;;;;;;5034475;28;20026;-59
2021/09/14 07:27:39;;;;;;;5.40;3.20;;;25.50;55.80;;;;;;5034616;28;20065;-59
2021/09/14 07:30:06;;;;;;;5.13;3.15;;;25.60;55.60;;;;;;5034617;28;20036;-60
2021/09/14 07:32:32;;;;;;;4.70;3.00;;;25.60;55.30;;;;;;5034709;28;20033;-60
2021/09/14 07:34:57;;;;;;;4.68;3.00;;;25.80;55.00;;;;;;5034376;28;20025;-59
2021/09/14 07:37:23;;;;;;;4.65;2.65;;;25.80;54.70;;;;;;5034440;28;20022;-58
2021/09/14 07:39:49;;;;;;;4.50;2.80;;;25.90;54.60;;;;;;5034097;28;20414;-59
2021/09/14 07:42:15;;;;;;;4.35;2.30;;;26.00;54.30;;;;;;5034336;28;20495;-60
2021/09/14 07:44:41;;;;;;;4.10;2.60;;;26.10;53.90;;;;;;5034127;28;20032;-59
2021/09/14 07:47:07;;;;;;;5.22;2.40;;;26.20;53.60;;;;;;5034097;28;20021;-60
2021/09/14 07:49:33;;;;;;;4.20;2.50;;;26.40;53.60;;;;;;5034020;28;20032;-58
2021/09/14 07:52:00;;;;;;;4.25;2.38;;;26.50;53.30;;;;;;5033990;28;20049;-61
2021/09/14 07:54:26;;;;;;;4.60;2.45;;;26.70;53.00;;;;;;5033950;28;20079;-59
2021/09/14 07:56:52;;;;;;;3.90;2.30;;;26.90;52.90;;;;;;5034014;28;20356;-60
2021/09/14 07:59:18;;;;;;;4.32;2.33;;;27.10;52.70;;;;;;5033858;28;20021;-59
2021/09/14 08:01:43;;;;;;;3.70;2.10;;;27.30;52.30;;;;;;5033512;28;20037;-60
2021/09/14 08:04:09;;;;;;;3.83;2.22;;;27.50;51.90;;;;;;5033510;28;20062;-60
2021/09/14 08:06:35;;;;;;;3.40;1.80;;;27.60;51.50;;;;;;5033787;28;20084;-62
2021/09/14 08:09:01;;;;;;;4.28;2.05;;;27.60;51.20;;;;;;5033541;28;20393;-60
2021/09/14 08:11:26;;;;;;;4.13;2.20;;;27.70;51.70;;;;;;5033604;28;20107;-59
2021/09/14 08:13:52;;;;;;;4.50;2.40;;;27.70;50.60;;;;;;5033007;28;20133;-59
2021/09/14 08:16:18;;;;;;;4.30;2.30;;;27.70;50.50;;;;;;5033687;28;20025;-60
2021/09/14 08:18:44;;;;;;;4.43;2.42;;;27.70;50.50;;;;;;5033880;28;20793;-60
2021/09/14 08:21:09;;;;;;;4.80;2.35;;;27.70;50.50;;;;;;5033173;28;20022;-60
2021/09/14 08:23:35;;;;;;;3.80;2.20;;;27.70;50.40;;;;;;5033262;28;20028;-59
2021/09/14 08:26:02;;;;;;;4.07;2.30;;;27.60;50.30;;;;;;5033298;28;20026;-60
2021/09/14 08:28:28;;;;;;;4.40;2.60;;;27.50;50.30;;;;;;5033222;28;20022;-60
2021/09/14 08:30:54;;;;;;;4.93;2.80;;;27.50;50.50;;;;;;5033324;28;20052;-60
2021/09/14 08:33:19;;;;;;;4.47;2.70;;;27.40;50.70;;;;;;5033213;28;20105;-60
2021/09/14 08:35:45;;;;;;;4.55;2.75;;;27.40;50.90;;;;;;5033234;28;20017;-59
2021/09/14 08:38:10;;;;;;;4.60;2.72;;;27.60;50.90;;;;;;5033166;28;20040;-60
2021/09/14 08:40:36;;;;;;;4.28;2.55;;;27.70;50.80;;;;;;5032949;28;20029;-59
2021/09/14 08:43:02;;;;;;;4.80;2.60;;;27.90;50.60;;;;;;5033118;28;20443;-60
2021/09/14 08:45:28;;;;;;;4.40;2.58;;;28.10;50.40;;;;;;5033073;28;20416;-59
2021/09/14 08:47:54;;;;;;;4.88;2.47;;;28.30;50.00;;;;;;5032934;28;20049;-58
2021/09/14 08:50:24;;;;;;;4.15;2.33;;;28.50;49.80;;;;;;5033042;28;20396;-59
2021/09/14 08:52:50;;;;;;;6.25;2.85;;;28.80;49.90;;;;;;5032656;28;20044;-60
2021/09/14 08:55:16;;;;;;;4.45;2.78;;;29.00;49.60;;;;;;5032532;28;20030;-60
2021/09/14 08:57:52;;;;;;;4.93;2.78;;;29.30;49.50;;;;;;5032457;28;20026;-60
2021/09/14 09:00:33;;;;;;;4.68;3.05;;;29.60;49.20;;;;;;5032344;28;20536;-60
2021/09/14 09:02:59;;;;;;;4.47;2.75;;;29.90;49.00;;;;;;5032530;28;20071;-60
2021/09/14 09:05:32;;;;;;;4.75;2.90;;;30.20;49.00;;;;;;5032467;28;20489;-60
2021/09/14 09:07:59;;;;;;;4.65;2.50;;;30.50;48.40;;;;;;5032325;28;20036;-60
2021/09/14 09:10:24;;;;;;;4.18;2.67;;;30.80;48.20;;;;;;5032031;28;20025;-60
2021/09/14 09:12:50;;;;;;;4.43;2.50;;;31.00;47.80;;;;;;5032371;28;20030;-59
2021/09/14 09:15:28;;;;;;;4.20;2.33;;;31.10;47.40;;;;;;5032192;28;20036;-60
2021/09/14 09:18:09;;;;;;;3.90;2.58;;;31.00;47.20;;;;;;5032458;28;20404;-59
2021/09/14 09:20:37;;;;;;;4.13;2.40;;;30.80;46.80;;;;;;5032084;28;20464;-59
2021/09/14 09:23:09;;;;;;;4.63;2.30;;;30.60;47.00;;;;;;5032026;28;20018;-59
2021/09/14 09:25:36;;;;;;;4.55;2.40;;;30.60;47.10;;;;;;5032741;28;20119;-59
2021/09/14 09:28:10;;;;;;;4.20;2.53;;;30.60;47.10;;;;;;5032163;28;20496;-60
2021/09/14 09:30:40;;;;;;;4.60;2.65;;;30.60;46.60;;;;;;5031951;28;20026;-59
2021/09/14 09:33:08;;;;;;;4.10;2.30;;;30.50;46.40;;;;;;5031813;28;20049;-60
2021/09/14 09:35:40;;;;;;;6.13;2.90;;;30.40;46.40;;;;;;5031936;28;20045;-60
2021/09/14 09:38:07;;;;;;;3.92;2.30;;;30.30;46.30;;;;;;5032034;28;20495;-59
2021/09/14 09:40:37;;;;;;;4.03;2.00;;;30.00;46.40;;;;;;5032019;28;20092;-59
2021/09/14 09:43:07;;;;;;;4.43;2.60;;;29.80;46.50;;;;;;5031712;28;20476;-60
2021/09/14 09:45:39;;;;;;;3.78;1.90;;;29.60;46.60;;;;;;5031750;28;20030;-61
2021/09/14 09:48:06;;;;;;;4.03;2.30;;;29.60;46.90;;;;;;5031743;28;20022;-60
2021/09/14 09:50:32;;;;;;;3.85;2.10;;;29.70;46.90;;;;;;5031604;28;20032;-60
2021/09/14 09:53:01;;;;;;;4.05;2.38;;;30.00;46.60;;;;;;5031689;28;20038;-60
2021/09/14 09:55:28;;;;;;;4.10;2.08;;;30.30;46.30;;;;;;5031823;28;20476;-59
2021/09/14 09:57:55;;;;;;;4.00;2.40;;;30.50;45.80;;;;;;5031558;28;20052;-60
2021/09/14 10:00:21;;;;;;;3.97;2.22;;;30.60;45.50;;;;;;5031652;28;20029;-60
2021/09/14 10:02:53;;;;;;;4.00;2.30;;;30.60;45.50;;;;;;5031886;28;20040;-59
2021/09/14 10:05:25;;;;;;;4.28;2.30;;;30.70;45.50;;;;;;5031701;28;20037;-60
2021/09/14 10:07:51;;;;;;;4.90;2.47;;;30.90;45.40;;;;;;5031698;28;20021;-60
2021/09/14 10:10:17;;;;;;;4.20;2.30;;;31.10;45.10;;;;;;5031614;28;20477;-59
2021/09/14 10:12:43;;;;;;;4.82;2.30;;;31.30;44.80;;;;;;5031423;28;20065;-60
2021/09/14 10:15:11;;;;;;;4.55;2.40;;;31.60;44.50;;;;;;5031215;28;20099;-59
2021/09/14 10:17:54;;;;;;;4.50;2.10;;;31.90;44.20;;;;;;5031641;28;20021;-61
2021/09/14 10:20:22;;;;;;;4.45;2.22;;;32.10;43.50;;;;;;5031736;28;20029;-60
2021/09/14 10:23:06;;;;;;;4.03;2.10;;;32.30;43.50;;;;;;5031140;28;20028;-59
2021/09/14 10:25:33;;;;;;;4.70;2.40;;;32.50;43.20;;;;;;5031348;28;20021;-59
2021/09/14 10:28:13;;;;;;;4.05;2.10;;;32.70;43.10;;;;;;5031419;28;20032;-59
2021/09/14 10:30:40;;;;;;;4.85;2.08;;;33.00;42.80;;;;;;5031494;28;20382;-59
2021/09/14 10:33:18;;;;;;;3.67;1.80;;;33.30;42.60;;;;;;5031120;28;20060;-59
2021/09/14 10:35:45;;;;;;;3.90;1.70;;;33.50;42.00;;;;;;5030601;28;20100;-60
2021/09/14 10:38:13;;;;;;;3.50;1.70;;;33.70;41.90;;;;;;5032804;28;20033;-59
2021/09/14 10:40:45;;;;;;;3.38;1.88;;;33.90;41.60;;;;;;5034481;28;20025;-60
2021/09/14 10:43:26;;;;;;;3.10;1.60;;;34.00;41.20;;;;;;5034328;28;20025;-60
2021/09/14 10:45:52;;;;;;;3.50;1.60;;;34.10;40.70;;;;;;5033226;28;20021;-59
2021/09/14 10:48:26;;;;;;;3.30;1.67;;;34.20;40.60;;;;;;5034459;28;20125;-60
2021/09/14 10:50:55;;;;;;;4.07;1.90;;;34.30;40.30;;;;;;5034469;28;20129;-59
2021/09/14 10:53:23;;;;;;;4.40;2.00;;;34.60;40.30;;;;;;5034511;28;20037;-59
2021/09/14 10:55:54;;;;;;;2.95;1.63;;;34.70;39.90;;;;;;5034656;28;20490;-59
2021/09/14 10:58:20;;;;;;;;;;;35.00;39.70;;;;;;5035346;28;20491;-60
2021/09/14 11:00:48;;;;;;;2.97;1.60;;;35.20;39.80;;;;;;5034302;28;19913;-60
2021/09/14 11:03:15;;;;;;;2.50;1.35;;;35.40;39.60;;;;;;5034831;28;20025;-60
2021/09/14 11:05:45;;;;;;;2.20;1.30;;;35.60;39.50;;;;;;5035035;28;20029;-60
2021/09/14 11:08:10;;;;;;;2.90;1.48;;;35.80;39.40;;;;;;5034285;28;20510;-59
2021/09/14 11:10:44;;;;;;;2.42;1.42;;;36.00;39.30;;;;;;5034033;28;20061;-60
2021/09/14 11:13:20;;;;;;;2.92;1.50;;;36.30;39.10;;;;;;5034509;28;20072;-60
2021/09/14 11:15:47;;;;;;;2.72;1.40;;;36.60;38.70;;;;;;5034891;28;20366;-60
2021/09/14 11:18:12;;;;;;;2.50;1.30;;;36.90;38.90;;;;;;5034571;28;20021;-60
2021/09/14 11:20:38;;;;;;;2.97;1.52;;;37.20;38.60;;;;;;5033099;28;20031;-60
2021/09/14 11:23:05;;;;;;;2.92;1.30;;;37.40;38.40;;;;;;5034115;28;20025;-60
2021/09/14 11:25:31;;;;;;;3.10;1.42;;;37.70;38.30;;;;;;5034112;28;20036;-60
2021/09/14 11:28:00;;;;;;;3.67;1.30;;;38.00;37.90;;;;;;5034179;28;20030;-60
2021/09/14 11:30:27;;;;;;;2.95;1.30;;;38.20;37.70;;;;;;5034045;28;20022;-61
2021/09/14 11:32:55;;;;;;;3.92;1.50;;;38.50;37.50;;;;;;5032772;28;20079;-60
2021/09/14 11:35:22;;;;;;;2.88;1.35;;;38.80;37.00;;;;;;5034164;28;20037;-60
2021/09/14 11:38:01;;;;;;;2.50;1.35;;;39.00;36.80;;;;;;5034292;28;20024;-61
2021/09/14 11:40:29;;;;;;;2.42;1.30;;;39.00;35.80;;;;;;5034171;28;20018;-61
2021/09/14 11:42:55;;;;;;;2.90;1.30;;;39.30;36.40;;;;;;5034277;28;20053;-60
2021/09/14 11:45:24;;;;;;;2.35;1.30;;;39.60;36.30;;;;;;5033829;28;20030;-62
2021/09/14 11:47:50;;;;;;;2.03;1.20;;;39.80;36.10;;;;;;5034179;28;20107;-60
2021/09/14 11:50:31;;;;;;;2.03;1.25;;;40.10;35.90;;;;;;5032793;28;20026;-60
2021/09/14 11:53:12;;;;;;;3.15;1.38;;;40.50;34.00;;;;;;5034319;28;20053;-62
2021/09/14 11:55:57;;;;;;;3.13;1.55;;;40.80;35.40;;;;;;5034012;28;20037;-60
2021/09/14 11:58:33;;;;;;;2.25;1.20;;;41.00;32.90;;;;;;5033885;28;20049;-61
2021/09/14 12:01:09;;;;;;;2.55;1.38;;;41.30;33.50;;;;;;5034467;28;20136;-60
2021/09/14 12:03:44;;;;;;;2.38;1.30;;;41.50;33.50;;;;;;5033848;28;20441;-61
2021/09/14 12:06:12;;;;;;;2.55;1.33;;;41.80;34.20;;;;;;5033520;28;20022;-61
2021/09/14 12:08:43;;;;;;;1.88;1.25;;;42.00;34.00;;;;;;5033537;28;20079;-60
2021/09/14 12:11:10;;;;;;;2.55;1.23;;;42.30;33.90;;;;;;5033723;28;20522;-61
2021/09/14 12:13:45;;;;;;;2.10;1.30;;;42.50;33.70;;;;;;5033864;28;20547;-60
2021/09/14 12:16:14;;;;;;;2.75;1.50;;;42.60;32.90;;;;;;5033621;28;20053;-60
2021/09/14 12:18:43;;;;;;;2.08;1.20;;;42.70;33.40;;;;;;5033491;28;20060;-60
2021/09/14 12:21:10;;;;;;;2.63;1.33;;;42.80;33.30;;;;;;5033252;28;20029;-61
2021/09/14 12:23:36;;;;;;;2.53;1.40;;;42.90;33.30;;;;;;5033446;28;20063;-61
2021/09/14 12:26:01;;;;;;;2.78;1.35;;;43.00;33.00;;;;;;5033384;28;20089;-61
2021/09/14 12:28:27;;;;;;;2.75;1.30;;;43.20;32.70;;;;;;5033282;28;20030;-61
2021/09/14 12:30:53;;;;;;;2.33;1.15;;;43.30;32.60;;;;;;5033288;28;20037;-61
2021/09/14 12:33:19;;;;;;;2.28;1.25;;;43.40;32.50;;;;;;5033199;28;20028;-61
2021/09/14 12:35:45;;;;;;;2.25;1.30;;;43.50;32.30;;;;;;5033154;28;20072;-60
2021/09/14 12:38:10;;;;;;;2.88;1.50;;;43.40;32.10;;;;;;5033137;28;20030;-60
2021/09/14 12:40:37;;;;;;;3.35;1.60;;;43.10;31.70;;;;;;5032912;28;20030;-60
2021/09/14 12:43:04;;;;;;;2.38;1.40;;;42.30;31.40;;;;;;5033003;28;20028;-61
2021/09/14 12:45:29;;;;;;;2.45;1.40;;;41.40;31.50;;;;;;5033102;28;20017;-61
2021/09/14 12:47:55;;;;;;;3.05;1.55;;;40.60;31.80;;;;;;5032980;28;20090;-61
2021/09/14 12:50:21;;;;;;;2.33;1.30;;;40.00;32.00;;;;;;5033070;28;20056;-61
2021/09/14 12:52:47;;;;;;;2.72;1.20;;;39.70;32.20;;;;;;5013382;28;20048;-61
2021/09/14 12:55:13;;;;;;;2.25;1.20;;;39.70;32.10;;;;;;5012990;28;20065;-61
2021/09/14 12:57:38;;;;;;;2.33;1.30;;;39.50;31.60;;;;;;5012982;28;20021;-61
2021/09/14 13:00:05;;;;;;;2.67;1.30;;;39.00;31.40;;;;;;5012584;28;20068;-61
2021/09/14 13:02:30;;;;;;;2.42;1.27;;;38.30;31.40;;;;;;5012929;28;20105;-60
2021/09/14 13:04:56;;;;;;;2.83;1.25;;;37.50;31.50;;;;;;5012834;28;20541;-60
2021/09/14 13:07:22;;;;;;;2.58;1.40;;;36.70;31.70;;;;;;5012881;28;20029;-61
2021/09/14 13:09:48;;;;;;;4.38;1.50;;;36.00;32.10;;;;;;5012826;28;20022;-61
2021/09/14 13:12:20;;;;;;;3.80;1.40;;;35.30;32.30;;;;;;5012846;28;20377;-61
2021/09/14 13:17:32;;;;;;;2.85;1.45;;;34.60;32.90;;;;;;5012421;28;20494;-62
2021/09/14 13:19:58;;;;;;;3.22;1.48;;;34.40;33.20;;;;;;5012503;28;20057;-63
2021/09/14 13:22:23;;;;;;;2.80;1.48;;;34.60;33.70;;;;;;5012443;28;20061;-63
2021/09/14 13:24:49;;;;;;;3.08;1.50;;;34.80;33.80;;;;;;5012670;28;20034;-61
2021/09/14 13:27:15;;;;;;;3.25;1.60;;;34.90;33.70;;;;;;5011551;28;20112;-64
2021/09/14 13:29:40;;;;;;;2.75;1.45;;;35.10;34.00;;;;;;5002612;28;20488;-63
2021/09/14 13:32:06;;;;;;;3.60;1.70;;;35.60;34.00;;;;;;5011113;28;20037;-64
2021/09/14 13:34:32;;;;;;;3.10;1.60;;;36.30;33.90;;;;;;5019299;28;20104;-62
2021/09/14 13:36:58;;;;;;;3.08;1.58;;;37.00;33.70;;;;;;5018813;28;20021;-63
2021/09/14 13:39:23;;;;;;;2.90;1.50;;;37.60;33.50;;;;;;5019467;28;20116;-64
2021/09/14 13:41:52;;;;;;;3.30;1.60;;;38.20;33.30;;;;;;5027823;28;20026;-63
2021/09/14 13:47:08;;;;;;;2.50;1.50;;;38.10;32.20;;;;;;5016382;28;20392;-63
2021/09/14 13:49:34;;;;;;;2.67;1.58;;;37.80;32.20;;;;;;5030419;28;20346;-62